sensor_id;sensor_type;location;lat;lon;timestamp;P1;durP1;ratioP1;P2;durP2;ratioP2
42198;SDS011;27868;45.184;5.786;2023-03-01T00:02:42;20.35;;;11.80;;
42198;SDS011;27868;45.184;5.786;2023-03-01T00:05:26;20.45;;;11.77;;
42198;SDS011;27868;45.184;5.786;2023-03-01T00:08:11;18.13;;;11.50;;
42198;SDS011;27868;45.184;5.786;2023-03-01T00:10:59;18.35;;;11.18;;
42198;SDS011;27868;45.184;5.786;2023-03-01T00:13:53;19.55;;;12.00;;
42198;SDS011;27868;45.184;5.786;2023-03-01T00:16:41;20.02;;;11.70;;
42198;SDS011;27868;45.184;5.786;2023-03-01T00:19:26;20.63;;;11.15;;
42198;SDS011;27868;45.184;5.786;2023-03-01T00:22:11;21.38;;;12.60;;
42198;SDS011;27868;45.184;5.786;2023-03-01T00:24:55;20.65;;;12.35;;
42198;SDS011;27868;45.184;5.786;2023-03-01T00:27:40;24.95;;;12.93;;
42198;SDS011;27868;45.184;5.786;2023-03-01T00:30:24;26.90;;;12.80;;
42198;SDS011;27868;45.184;5.786;2023-03-01T00:33:09;23.10;;;11.98;;
42198;SDS011;27868;45.184;5.786;2023-03-01T00:35:53;24.02;;;13.52;;
42198;SDS011;27868;45.184;5.786;2023-03-01T00:38:38;22.85;;;13.20;;
42198;SDS011;27868;45.184;5.786;2023-03-01T00:41:24;21.70;;;12.80;;
42198;SDS011;27868;45.184;5.786;2023-03-01T00:44:13;24.02;;;13.50;;
42198;SDS011;27868;45.184;5.786;2023-03-01T00:46:57;25.25;;;12.57;;
42198;SDS011;27868;45.184;5.786;2023-03-01T00:49:42;21.45;;;12.80;;
42198;SDS011;27868;45.184;5.786;2023-03-01T00:52:27;22.08;;;12.95;;
42198;SDS011;27868;45.184;5.786;2023-03-01T00:55:12;20.88;;;12.30;;
42198;SDS011;27868;45.184;5.786;2023-03-01T00:57:56;20.02;;;12.18;;
42198;SDS011;27868;45.184;5.786;2023-03-01T01:00:41;21.23;;;12.63;;
42198;SDS011;27868;45.184;5.786;2023-03-01T01:03:26;24.60;;;12.77;;
42198;SDS011;27868;45.184;5.786;2023-03-01T01:06:14;21.63;;;12.50;;
42198;SDS011;27868;45.184;5.786;2023-03-01T01:09:00;21.08;;;12.15;;
42198;SDS011;27868;45.184;5.786;2023-03-01T01:11:47;21.88;;;12.65;;
42198;SDS011;27868;45.184;5.786;2023-03-01T01:14:34;26.58;;;13.00;;
42198;SDS011;27868;45.184;5.786;2023-03-01T01:17:18;24.08;;;13.07;;
42198;SDS011;27868;45.184;5.786;2023-03-01T01:20:03;21.00;;;12.73;;
42198;SDS011;27868;45.184;5.786;2023-03-01T01:22:48;20.83;;;12.90;;
42198;SDS011;27868;45.184;5.786;2023-03-01T01:25:34;25.63;;;13.57;;
42198;SDS011;27868;45.184;5.786;2023-03-01T01:28:20;22.27;;;12.50;;
42198;SDS011;27868;45.184;5.786;2023-03-01T01:31:04;24.02;;;13.45;;
42198;SDS011;27868;45.184;5.786;2023-03-01T01:33:50;31.77;;;13.63;;
42198;SDS011;27868;45.184;5.786;2023-03-01T01:36:35;25.77;;;13.68;;
42198;SDS011;27868;45.184;5.786;2023-03-01T01:39:20;23.33;;;13.50;;
42198;SDS011;27868;45.184;5.786;2023-03-01T01:42:06;24.23;;;13.48;;
42198;SDS011;27868;45.184;5.786;2023-03-01T01:45:24;23.92;;;14.02;;
42198;SDS011;27868;45.184;5.786;2023-03-01T01:48:19;26.98;;;13.80;;
42198;SDS011;27868;45.184;5.786;2023-03-01T01:51:07;24.30;;;13.32;;
42198;SDS011;27868;45.184;5.786;2023-03-01T01:53:58;25.58;;;14.27;;
42198;SDS011;27868;45.184;5.786;2023-03-01T01:56:47;23.17;;;13.77;;
42198;SDS011;27868;45.184;5.786;2023-03-01T01:59:37;24.23;;;13.65;;
42198;SDS011;27868;45.184;5.786;2023-03-01T02:02:23;24.35;;;13.65;;
42198;SDS011;27868;45.184;5.786;2023-03-01T02:05:11;26.25;;;14.30;;
42198;SDS011;27868;45.184;5.786;2023-03-01T02:08:16;23.67;;;13.75;;
42198;SDS011;27868;45.184;5.786;2023-03-01T02:11:04;23.80;;;13.68;;
42198;SDS011;27868;45.184;5.786;2023-03-01T02:13:49;25.55;;;14.13;;
42198;SDS011;27868;45.184;5.786;2023-03-01T02:16:34;23.50;;;13.88;;
42198;SDS011;27868;45.184;5.786;2023-03-01T02:22:24;23.52;;;13.10;;
42198;SDS011;27868;45.184;5.786;2023-03-01T02:30:51;23.40;;;13.20;;
42198;SDS011;27868;45.184;5.786;2023-03-01T02:34:08;25.15;;;13.88;;
42198;SDS011;27868;45.184;5.786;2023-03-01T02:37:02;23.40;;;13.75;;
42198;SDS011;27868;45.184;5.786;2023-03-01T02:40:02;24.40;;;14.63;;
42198;SDS011;27868;45.184;5.786;2023-03-01T02:42:51;24.25;;;13.77;;
42198;SDS011;27868;45.184;5.786;2023-03-01T02:45:42;23.80;;;13.90;;
42198;SDS011;27868;45.184;5.786;2023-03-01T02:48:46;27.20;;;14.40;;
42198;SDS011;27868;45.184;5.786;2023-03-01T02:57:12;24.98;;;13.45;;
42198;SDS011;27868;45.184;5.786;2023-03-01T02:59:57;25.63;;;14.60;;
42198;SDS011;27868;45.184;5.786;2023-03-01T03:02:51;25.77;;;13.93;;
42198;SDS011;27868;45.184;5.786;2023-03-01T03:05:37;24.48;;;14.60;;
42198;SDS011;27868;45.184;5.786;2023-03-01T03:08:21;24.40;;;13.25;;
42198;SDS011;27868;45.184;5.786;2023-03-01T03:11:07;25.00;;;14.00;;
42198;SDS011;27868;45.184;5.786;2023-03-01T03:13:52;25.90;;;14.77;;
42198;SDS011;27868;45.184;5.786;2023-03-01T03:16:44;26.80;;;14.13;;
42198;SDS011;27868;45.184;5.786;2023-03-01T03:19:31;25.92;;;14.05;;
42198;SDS011;27868;45.184;5.786;2023-03-01T03:22:15;27.23;;;14.43;;
42198;SDS011;27868;45.184;5.786;2023-03-01T03:25:00;27.73;;;13.75;;
42198;SDS011;27868;45.184;5.786;2023-03-01T03:27:45;25.05;;;13.73;;
42198;SDS011;27868;45.184;5.786;2023-03-01T03:30:31;27.60;;;14.60;;
42198;SDS011;27868;45.184;5.786;2023-03-01T03:33:15;26.40;;;14.55;;
42198;SDS011;27868;45.184;5.786;2023-03-01T03:36:00;25.70;;;14.77;;
42198;SDS011;27868;45.184;5.786;2023-03-01T03:38:44;26.58;;;14.90;;
42198;SDS011;27868;45.184;5.786;2023-03-01T03:41:30;25.42;;;14.07;;
42198;SDS011;27868;45.184;5.786;2023-03-01T03:44:15;28.08;;;15.40;;
42198;SDS011;27868;45.184;5.786;2023-03-01T03:46:59;29.60;;;14.80;;
42198;SDS011;27868;45.184;5.786;2023-03-01T03:49:44;29.20;;;15.82;;
42198;SDS011;27868;45.184;5.786;2023-03-01T03:52:28;27.23;;;14.88;;
42198;SDS011;27868;45.184;5.786;2023-03-01T03:55:13;28.75;;;14.57;;
42198;SDS011;27868;45.184;5.786;2023-03-01T03:57:58;28.05;;;14.85;;
42198;SDS011;27868;45.184;5.786;2023-03-01T04:00:50;27.73;;;15.13;;
42198;SDS011;27868;45.184;5.786;2023-03-01T04:06:21;27.17;;;15.15;;
42198;SDS011;27868;45.184;5.786;2023-03-01T04:09:06;25.30;;;14.40;;
42198;SDS011;27868;45.184;5.786;2023-03-01T04:11:50;25.55;;;15.00;;
42198;SDS011;27868;45.184;5.786;2023-03-01T04:14:35;29.08;;;15.15;;
42198;SDS011;27868;45.184;5.786;2023-03-01T04:17:20;26.73;;;14.70;;
42198;SDS011;27868;45.184;5.786;2023-03-01T04:20:05;26.80;;;14.48;;
42198;SDS011;27868;45.184;5.786;2023-03-01T04:22:51;26.90;;;14.93;;
42198;SDS011;27868;45.184;5.786;2023-03-01T04:25:49;26.92;;;15.13;;
42198;SDS011;27868;45.184;5.786;2023-03-01T04:28:39;27.42;;;15.23;;
42198;SDS011;27868;45.184;5.786;2023-03-01T04:31:29;26.27;;;14.00;;
42198;SDS011;27868;45.184;5.786;2023-03-01T04:34:13;28.77;;;15.70;;
42198;SDS011;27868;45.184;5.786;2023-03-01T04:36:58;29.10;;;16.00;;
42198;SDS011;27868;45.184;5.786;2023-03-01T04:39:43;29.27;;;16.33;;
42198;SDS011;27868;45.184;5.786;2023-03-01T04:42:29;28.58;;;15.68;;
42198;SDS011;27868;45.184;5.786;2023-03-01T04:45:14;28.83;;;15.57;;
42198;SDS011;27868;45.184;5.786;2023-03-01T04:47:58;26.30;;;14.60;;
42198;SDS011;27868;45.184;5.786;2023-03-01T04:50:43;26.80;;;15.52;;
42198;SDS011;27868;45.184;5.786;2023-03-01T04:53:28;32.58;;;15.27;;
42198;SDS011;27868;45.184;5.786;2023-03-01T04:56:13;27.05;;;14.45;;
42198;SDS011;27868;45.184;5.786;2023-03-01T04:58:59;30.35;;;15.40;;
42198;SDS011;27868;45.184;5.786;2023-03-01T05:01:44;26.70;;;15.35;;
42198;SDS011;27868;45.184;5.786;2023-03-01T05:04:28;29.27;;;16.65;;
42198;SDS011;27868;45.184;5.786;2023-03-01T05:07:14;27.95;;;14.82;;
42198;SDS011;27868;45.184;5.786;2023-03-01T05:10:03;30.10;;;15.57;;
42198;SDS011;27868;45.184;5.786;2023-03-01T05:12:48;26.80;;;14.45;;
42198;SDS011;27868;45.184;5.786;2023-03-01T05:15:33;28.50;;;14.90;;
42198;SDS011;27868;45.184;5.786;2023-03-01T05:18:17;32.88;;;15.52;;
42198;SDS011;27868;45.184;5.786;2023-03-01T05:21:04;27.63;;;15.05;;
42198;SDS011;27868;45.184;5.786;2023-03-01T05:23:50;27.70;;;15.15;;
42198;SDS011;27868;45.184;5.786;2023-03-01T05:26:35;29.20;;;16.45;;
42198;SDS011;27868;45.184;5.786;2023-03-01T05:29:24;28.27;;;15.23;;
42198;SDS011;27868;45.184;5.786;2023-03-01T05:32:10;27.90;;;14.77;;
42198;SDS011;27868;45.184;5.786;2023-03-01T05:34:59;28.70;;;15.45;;
42198;SDS011;27868;45.184;5.786;2023-03-01T05:37:44;29.10;;;15.20;;
42198;SDS011;27868;45.184;5.786;2023-03-01T05:40:32;29.38;;;15.05;;
42198;SDS011;27868;45.184;5.786;2023-03-01T05:43:18;27.88;;;15.13;;
42198;SDS011;27868;45.184;5.786;2023-03-01T05:46:02;29.17;;;15.85;;
42198;SDS011;27868;45.184;5.786;2023-03-01T05:48:47;26.27;;;14.88;;
42198;SDS011;27868;45.184;5.786;2023-03-01T05:51:32;29.10;;;15.23;;
42198;SDS011;27868;45.184;5.786;2023-03-01T05:54:18;29.52;;;15.65;;
42198;SDS011;27868;45.184;5.786;2023-03-01T05:57:04;29.85;;;14.90;;
42198;SDS011;27868;45.184;5.786;2023-03-01T05:59:49;30.10;;;15.13;;
42198;SDS011;27868;45.184;5.786;2023-03-01T06:02:34;29.65;;;15.10;;
42198;SDS011;27868;45.184;5.786;2023-03-01T06:05:18;29.42;;;15.23;;
42198;SDS011;27868;45.184;5.786;2023-03-01T06:08:03;32.05;;;16.13;;
42198;SDS011;27868;45.184;5.786;2023-03-01T06:10:48;27.55;;;15.48;;
42198;SDS011;27868;45.184;5.786;2023-03-01T06:13:32;27.67;;;15.63;;
42198;SDS011;27868;45.184;5.786;2023-03-01T06:16:17;30.15;;;15.30;;
42198;SDS011;27868;45.184;5.786;2023-03-01T06:19:02;31.58;;;15.30;;
42198;SDS011;27868;45.184;5.786;2023-03-01T06:21:46;31.45;;;16.42;;
42198;SDS011;27868;45.184;5.786;2023-03-01T06:24:31;30.70;;;15.52;;
42198;SDS011;27868;45.184;5.786;2023-03-01T06:27:17;30.90;;;15.68;;
42198;SDS011;27868;45.184;5.786;2023-03-01T06:30:02;31.05;;;16.77;;
42198;SDS011;27868;45.184;5.786;2023-03-01T06:32:49;30.10;;;16.08;;
42198;SDS011;27868;45.184;5.786;2023-03-01T06:35:34;32.85;;;16.27;;
42198;SDS011;27868;45.184;5.786;2023-03-01T06:38:19;28.95;;;15.68;;
42198;SDS011;27868;45.184;5.786;2023-03-01T06:41:03;31.15;;;16.33;;
42198;SDS011;27868;45.184;5.786;2023-03-01T06:43:48;32.15;;;17.05;;
42198;SDS011;27868;45.184;5.786;2023-03-01T06:46:32;29.70;;;16.25;;
42198;SDS011;27868;45.184;5.786;2023-03-01T06:49:17;29.40;;;14.98;;
42198;SDS011;27868;45.184;5.786;2023-03-01T06:52:01;28.98;;;15.25;;
42198;SDS011;27868;45.184;5.786;2023-03-01T06:54:46;29.88;;;15.77;;
42198;SDS011;27868;45.184;5.786;2023-03-01T06:57:31;30.13;;;15.43;;
42198;SDS011;27868;45.184;5.786;2023-03-01T07:00:16;30.45;;;16.13;;
42198;SDS011;27868;45.184;5.786;2023-03-01T07:03:02;31.23;;;16.52;;
42198;SDS011;27868;45.184;5.786;2023-03-01T07:05:50;29.63;;;15.48;;
42198;SDS011;27868;45.184;5.786;2023-03-01T07:08:38;29.63;;;15.63;;
42198;SDS011;27868;45.184;5.786;2023-03-01T07:11:22;31.92;;;16.23;;
42198;SDS011;27868;45.184;5.786;2023-03-01T07:14:07;32.47;;;15.73;;
42198;SDS011;27868;45.184;5.786;2023-03-01T07:16:52;38.40;;;16.98;;
42198;SDS011;27868;45.184;5.786;2023-03-01T07:19:37;31.75;;;17.15;;
42198;SDS011;27868;45.184;5.786;2023-03-01T07:22:22;34.45;;;16.58;;
42198;SDS011;27868;45.184;5.786;2023-03-01T07:25:07;30.85;;;15.55;;
42198;SDS011;27868;45.184;5.786;2023-03-01T07:27:52;31.08;;;16.08;;
42198;SDS011;27868;45.184;5.786;2023-03-01T07:30:38;30.73;;;16.05;;
42198;SDS011;27868;45.184;5.786;2023-03-01T07:33:24;32.53;;;17.92;;
42198;SDS011;27868;45.184;5.786;2023-03-01T07:36:09;30.98;;;15.95;;
42198;SDS011;27868;45.184;5.786;2023-03-01T07:38:53;31.00;;;15.32;;
42198;SDS011;27868;45.184;5.786;2023-03-01T07:41:39;30.05;;;16.73;;
42198;SDS011;27868;45.184;5.786;2023-03-01T07:44:24;32.47;;;16.25;;
42198;SDS011;27868;45.184;5.786;2023-03-01T07:47:09;30.27;;;16.38;;
42198;SDS011;27868;45.184;5.786;2023-03-01T07:49:53;31.58;;;16.08;;
42198;SDS011;27868;45.184;5.786;2023-03-01T07:52:38;31.52;;;16.17;;
42198;SDS011;27868;45.184;5.786;2023-03-01T07:55:22;33.58;;;17.23;;
42198;SDS011;27868;45.184;5.786;2023-03-01T07:58:07;32.40;;;16.65;;
42198;SDS011;27868;45.184;5.786;2023-03-01T08:00:51;32.10;;;16.42;;
42198;SDS011;27868;45.184;5.786;2023-03-01T08:03:36;30.23;;;15.48;;
42198;SDS011;27868;45.184;5.786;2023-03-01T08:06:21;33.92;;;17.13;;
42198;SDS011;27868;45.184;5.786;2023-03-01T08:09:06;34.47;;;16.30;;
42198;SDS011;27868;45.184;5.786;2023-03-01T08:11:52;30.25;;;16.70;;
42198;SDS011;27868;45.184;5.786;2023-03-01T08:14:38;33.53;;;17.60;;
42198;SDS011;27868;45.184;5.786;2023-03-01T08:17:23;32.30;;;15.95;;
42198;SDS011;27868;45.184;5.786;2023-03-01T08:20:08;34.75;;;17.58;;
42198;SDS011;27868;45.184;5.786;2023-03-01T08:22:57;31.48;;;16.38;;
42198;SDS011;27868;45.184;5.786;2023-03-01T08:25:42;31.38;;;16.58;;
42198;SDS011;27868;45.184;5.786;2023-03-01T08:28:26;32.95;;;17.17;;
42198;SDS011;27868;45.184;5.786;2023-03-01T08:34:01;33.47;;;16.67;;
42198;SDS011;27868;45.184;5.786;2023-03-01T08:36:48;30.67;;;16.30;;
42198;SDS011;27868;45.184;5.786;2023-03-01T08:39:34;32.35;;;17.10;;
42198;SDS011;27868;45.184;5.786;2023-03-01T08:42:18;37.15;;;17.50;;
42198;SDS011;27868;45.184;5.786;2023-03-01T08:45:03;33.30;;;16.90;;
42198;SDS011;27868;45.184;5.786;2023-03-01T08:47:51;33.55;;;16.08;;
42198;SDS011;27868;45.184;5.786;2023-03-01T08:50:37;34.20;;;17.25;;
42198;SDS011;27868;45.184;5.786;2023-03-01T08:53:21;34.22;;;17.30;;
42198;SDS011;27868;45.184;5.786;2023-03-01T08:56:07;36.95;;;16.58;;
42198;SDS011;27868;45.184;5.786;2023-03-01T08:58:52;33.75;;;16.65;;
42198;SDS011;27868;45.184;5.786;2023-03-01T09:01:37;31.50;;;16.23;;
42198;SDS011;27868;45.184;5.786;2023-03-01T09:04:22;39.75;;;16.60;;
42198;SDS011;27868;45.184;5.786;2023-03-01T09:07:07;28.73;;;15.35;;
42198;SDS011;27868;45.184;5.786;2023-03-01T09:09:52;30.65;;;16.27;;
42198;SDS011;27868;45.184;5.786;2023-03-01T09:12:37;32.00;;;16.88;;
42198;SDS011;27868;45.184;5.786;2023-03-01T09:15:22;32.53;;;16.17;;
42198;SDS011;27868;45.184;5.786;2023-03-01T09:18:06;30.45;;;15.85;;
42198;SDS011;27868;45.184;5.786;2023-03-01T09:20:51;33.85;;;16.38;;
42198;SDS011;27868;45.184;5.786;2023-03-01T09:23:36;31.17;;;16.38;;
42198;SDS011;27868;45.184;5.786;2023-03-01T09:26:23;33.78;;;16.75;;
42198;SDS011;27868;45.184;5.786;2023-03-01T09:29:08;32.55;;;16.65;;
42198;SDS011;27868;45.184;5.786;2023-03-01T09:31:53;31.08;;;16.33;;
42198;SDS011;27868;45.184;5.786;2023-03-01T09:34:41;32.17;;;16.55;;
42198;SDS011;27868;45.184;5.786;2023-03-01T09:37:45;31.55;;;16.70;;
42198;SDS011;27868;45.184;5.786;2023-03-01T09:40:30;30.88;;;15.35;;
42198;SDS011;27868;45.184;5.786;2023-03-01T09:46:29;34.28;;;16.80;;
42198;SDS011;27868;45.184;5.786;2023-03-01T09:49:23;32.38;;;17.15;;
42198;SDS011;27868;45.184;5.786;2023-03-01T09:55:34;34.38;;;16.60;;
42198;SDS011;27868;45.184;5.786;2023-03-01T10:01:34;35.78;;;17.80;;
42198;SDS011;27868;45.184;5.786;2023-03-01T10:13:18;32.90;;;16.40;;
42198;SDS011;27868;45.184;5.786;2023-03-01T10:19:05;30.85;;;16.92;;
42198;SDS011;27868;45.184;5.786;2023-03-01T10:21:53;33.13;;;16.83;;
42198;SDS011;27868;45.184;5.786;2023-03-01T10:24:41;36.08;;;16.70;;
42198;SDS011;27868;45.184;5.786;2023-03-01T10:27:34;31.52;;;16.90;;
42198;SDS011;27868;45.184;5.786;2023-03-01T10:33:31;32.05;;;16.38;;
42198;SDS011;27868;45.184;5.786;2023-03-01T10:36:19;33.15;;;17.00;;
42198;SDS011;27868;45.184;5.786;2023-03-01T10:39:05;34.13;;;16.42;;
42198;SDS011;27868;45.184;5.786;2023-03-01T10:42:01;32.33;;;16.73;;
42198;SDS011;27868;45.184;5.786;2023-03-01T10:51:07;32.53;;;15.60;;
42198;SDS011;27868;45.184;5.786;2023-03-01T10:53:52;31.60;;;15.90;;
42198;SDS011;27868;45.184;5.786;2023-03-01T10:56:46;30.38;;;15.88;;
42198;SDS011;27868;45.184;5.786;2023-03-01T10:59:38;34.35;;;16.40;;
42198;SDS011;27868;45.184;5.786;2023-03-01T11:02:30;29.60;;;15.68;;
42198;SDS011;27868;45.184;5.786;2023-03-01T11:05:19;32.22;;;16.05;;
42198;SDS011;27868;45.184;5.786;2023-03-01T11:08:08;32.60;;;16.65;;
42198;SDS011;27868;45.184;5.786;2023-03-01T11:11:02;28.98;;;15.93;;
42198;SDS011;27868;45.184;5.786;2023-03-01T11:16:42;29.35;;;15.32;;
42198;SDS011;27868;45.184;5.786;2023-03-01T11:19:28;30.33;;;15.65;;
42198;SDS011;27868;45.184;5.786;2023-03-01T11:22:16;32.30;;;15.68;;
42198;SDS011;27868;45.184;5.786;2023-03-01T11:25:04;35.25;;;15.73;;
42198;SDS011;27868;45.184;5.786;2023-03-01T11:27:49;31.83;;;15.88;;
42198;SDS011;27868;45.184;5.786;2023-03-01T11:30:40;32.72;;;16.73;;
42198;SDS011;27868;45.184;5.786;2023-03-01T11:33:43;30.35;;;15.13;;
42198;SDS011;27868;45.184;5.786;2023-03-01T11:36:41;28.67;;;14.75;;
42198;SDS011;27868;45.184;5.786;2023-03-01T11:39:37;34.97;;;15.35;;
42198;SDS011;27868;45.184;5.786;2023-03-01T11:42:47;31.55;;;15.05;;
42198;SDS011;27868;45.184;5.786;2023-03-01T11:46:01;34.17;;;15.05;;
42198;SDS011;27868;45.184;5.786;2023-03-01T11:52:19;29.63;;;15.50;;
42198;SDS011;27868;45.184;5.786;2023-03-01T12:01:21;27.80;;;14.30;;
42198;SDS011;27868;45.184;5.786;2023-03-01T12:07:20;28.23;;;15.10;;
42198;SDS011;27868;45.184;5.786;2023-03-01T12:10:23;32.33;;;14.90;;
42198;SDS011;27868;45.184;5.786;2023-03-01T12:32:17;28.90;;;14.52;;
42198;SDS011;27868;45.184;5.786;2023-03-01T12:43:34;30.10;;;15.13;;
42198;SDS011;27868;45.184;5.786;2023-03-01T12:46:23;30.70;;;15.40;;
42198;SDS011;27868;45.184;5.786;2023-03-01T12:55:33;27.67;;;14.93;;
42198;SDS011;27868;45.184;5.786;2023-03-01T13:13:18;50.05;;;18.35;;
42198;SDS011;27868;45.184;5.786;2023-03-01T13:22:01;29.40;;;15.00;;
42198;SDS011;27868;45.184;5.786;2023-03-01T13:25:16;31.20;;;16.15;;
42198;SDS011;27868;45.184;5.786;2023-03-01T13:34:03;30.63;;;15.77;;
42198;SDS011;27868;45.184;5.786;2023-03-01T13:36:51;27.25;;;15.68;;
42198;SDS011;27868;45.184;5.786;2023-03-01T13:39:39;29.42;;;15.13;;
42198;SDS011;27868;45.184;5.786;2023-03-01T13:42:30;29.58;;;15.48;;
42198;SDS011;27868;45.184;5.786;2023-03-01T13:45:39;27.83;;;14.63;;
42198;SDS011;27868;45.184;5.786;2023-03-01T13:48:29;28.13;;;15.23;;
42198;SDS011;27868;45.184;5.786;2023-03-01T13:51:15;31.25;;;16.42;;
42198;SDS011;27868;45.184;5.786;2023-03-01T13:54:04;30.88;;;15.75;;
42198;SDS011;27868;45.184;5.786;2023-03-01T13:56:55;30.02;;;16.38;;
42198;SDS011;27868;45.184;5.786;2023-03-01T13:59:46;31.25;;;15.77;;
42198;SDS011;27868;45.184;5.786;2023-03-01T14:02:31;26.80;;;14.93;;
42198;SDS011;27868;45.184;5.786;2023-03-01T14:05:18;29.85;;;15.55;;
42198;SDS011;27868;45.184;5.786;2023-03-01T14:08:03;32.58;;;16.23;;
42198;SDS011;27868;45.184;5.786;2023-03-01T14:17:12;32.80;;;16.88;;
42198;SDS011;27868;45.184;5.786;2023-03-01T14:20:02;31.23;;;16.40;;
42198;SDS011;27868;45.184;5.786;2023-03-01T14:22:55;33.95;;;17.13;;
42198;SDS011;27868;45.184;5.786;2023-03-01T14:26:17;28.50;;;15.75;;
42198;SDS011;27868;45.184;5.786;2023-03-01T14:28:56;32.72;;;15.60;;
42198;SDS011;27868;45.184;5.786;2023-03-01T14:31:40;29.67;;;15.68;;
42198;SDS011;27868;45.184;5.786;2023-03-01T14:34:26;30.00;;;16.98;;
42198;SDS011;27868;45.184;5.786;2023-03-01T14:37:15;31.30;;;16.80;;
42198;SDS011;27868;45.184;5.786;2023-03-01T14:40:19;30.95;;;15.85;;
42198;SDS011;27868;45.184;5.786;2023-03-01T14:43:17;28.73;;;16.35;;
42198;SDS011;27868;45.184;5.786;2023-03-01T14:46:06;31.05;;;17.05;;
42198;SDS011;27868;45.184;5.786;2023-03-01T14:49:02;30.95;;;17.08;;
42198;SDS011;27868;45.184;5.786;2023-03-01T14:52:06;31.25;;;16.33;;
42198;SDS011;27868;45.184;5.786;2023-03-01T14:55:00;33.15;;;16.85;;
42198;SDS011;27868;45.184;5.786;2023-03-01T14:57:49;31.48;;;16.92;;
42198;SDS011;27868;45.184;5.786;2023-03-01T15:00:35;32.63;;;17.10;;
42198;SDS011;27868;45.184;5.786;2023-03-01T15:03:36;37.20;;;17.75;;
42198;SDS011;27868;45.184;5.786;2023-03-01T15:06:26;34.22;;;17.33;;
42198;SDS011;27868;45.184;5.786;2023-03-01T15:09:12;33.30;;;16.20;;
42198;SDS011;27868;45.184;5.786;2023-03-01T15:12:00;34.42;;;17.70;;
42198;SDS011;27868;45.184;5.786;2023-03-01T15:15:21;33.55;;;16.55;;
42198;SDS011;27868;45.184;5.786;2023-03-01T15:18:18;33.47;;;16.20;;
42198;SDS011;27868;45.184;5.786;2023-03-01T15:21:13;33.85;;;17.67;;
42198;SDS011;27868;45.184;5.786;2023-03-01T15:29:41;29.38;;;16.50;;
42198;SDS011;27868;45.184;5.786;2023-03-01T15:32:34;35.63;;;17.15;;
42198;SDS011;27868;45.184;5.786;2023-03-01T15:35:37;34.22;;;18.02;;
42198;SDS011;27868;45.184;5.786;2023-03-01T15:38:33;34.50;;;17.88;;
42198;SDS011;27868;45.184;5.786;2023-03-01T15:41:37;32.90;;;16.92;;
42198;SDS011;27868;45.184;5.786;2023-03-01T15:44:32;34.78;;;16.13;;
42198;SDS011;27868;45.184;5.786;2023-03-01T15:47:27;34.40;;;17.60;;
42198;SDS011;27868;45.184;5.786;2023-03-01T15:50:16;31.30;;;17.05;;
42198;SDS011;27868;45.184;5.786;2023-03-01T15:53:13;32.33;;;17.05;;
42198;SDS011;27868;45.184;5.786;2023-03-01T15:55:58;31.33;;;17.45;;
42198;SDS011;27868;45.184;5.786;2023-03-01T15:58:43;34.05;;;16.77;;
42198;SDS011;27868;45.184;5.786;2023-03-01T16:01:28;34.17;;;17.73;;
42198;SDS011;27868;45.184;5.786;2023-03-01T16:04:13;32.22;;;18.33;;
42198;SDS011;27868;45.184;5.786;2023-03-01T16:07:04;32.55;;;16.83;;
42198;SDS011;27868;45.184;5.786;2023-03-01T16:09:49;40.00;;;17.60;;
42198;SDS011;27868;45.184;5.786;2023-03-01T16:12:34;33.28;;;17.75;;
42198;SDS011;27868;45.184;5.786;2023-03-01T16:18:03;28.33;;;15.82;;
42198;SDS011;27868;45.184;5.786;2023-03-01T16:20:49;33.13;;;18.05;;
42198;SDS011;27868;45.184;5.786;2023-03-01T16:23:33;30.58;;;17.20;;
42198;SDS011;27868;45.184;5.786;2023-03-01T16:26:18;34.35;;;17.08;;
42198;SDS011;27868;45.184;5.786;2023-03-01T16:29:04;33.00;;;18.20;;
42198;SDS011;27868;45.184;5.786;2023-03-01T16:31:49;31.50;;;16.98;;
42198;SDS011;27868;45.184;5.786;2023-03-01T16:34:34;31.33;;;17.50;;
42198;SDS011;27868;45.184;5.786;2023-03-01T16:37:19;35.05;;;19.27;;
42198;SDS011;27868;45.184;5.786;2023-03-01T16:40:06;34.00;;;18.40;;
42198;SDS011;27868;45.184;5.786;2023-03-01T16:43:00;37.42;;;18.17;;
42198;SDS011;27868;45.184;5.786;2023-03-01T16:45:45;33.53;;;18.13;;
42198;SDS011;27868;45.184;5.786;2023-03-01T16:48:30;33.15;;;17.02;;
42198;SDS011;27868;45.184;5.786;2023-03-01T16:51:15;34.15;;;18.17;;
42198;SDS011;27868;45.184;5.786;2023-03-01T16:54:00;36.33;;;19.27;;
42198;SDS011;27868;45.184;5.786;2023-03-01T16:56:44;33.63;;;17.80;;
42198;SDS011;27868;45.184;5.786;2023-03-01T16:59:29;37.67;;;18.85;;
42198;SDS011;27868;45.184;5.786;2023-03-01T17:02:14;33.50;;;17.67;;
42198;SDS011;27868;45.184;5.786;2023-03-01T17:05:04;32.25;;;17.27;;
42198;SDS011;27868;45.184;5.786;2023-03-01T17:07:49;33.95;;;17.88;;
42198;SDS011;27868;45.184;5.786;2023-03-01T17:10:34;35.50;;;18.38;;
42198;SDS011;27868;45.184;5.786;2023-03-01T17:13:19;33.53;;;17.85;;
42198;SDS011;27868;45.184;5.786;2023-03-01T17:16:04;33.53;;;17.48;;
42198;SDS011;27868;45.184;5.786;2023-03-01T17:18:51;34.22;;;18.00;;
42198;SDS011;27868;45.184;5.786;2023-03-01T17:21:36;34.45;;;19.00;;
42198;SDS011;27868;45.184;5.786;2023-03-01T17:24:20;33.75;;;18.05;;
42198;SDS011;27868;45.184;5.786;2023-03-01T17:27:06;35.90;;;17.92;;
42198;SDS011;27868;45.184;5.786;2023-03-01T17:29:51;37.28;;;20.15;;
42198;SDS011;27868;45.184;5.786;2023-03-01T17:32:36;36.38;;;19.42;;
42198;SDS011;27868;45.184;5.786;2023-03-01T17:35:21;36.80;;;19.73;;
42198;SDS011;27868;45.184;5.786;2023-03-01T17:38:06;34.22;;;18.58;;
42198;SDS011;27868;45.184;5.786;2023-03-01T17:40:50;33.50;;;18.52;;
42198;SDS011;27868;45.184;5.786;2023-03-01T17:43:35;33.72;;;18.45;;
42198;SDS011;27868;45.184;5.786;2023-03-01T17:46:20;33.78;;;18.80;;
42198;SDS011;27868;45.184;5.786;2023-03-01T17:49:04;41.50;;;17.70;;
42198;SDS011;27868;45.184;5.786;2023-03-01T17:51:49;34.60;;;18.55;;
42198;SDS011;27868;45.184;5.786;2023-03-01T17:54:34;39.05;;;18.95;;
42198;SDS011;27868;45.184;5.786;2023-03-01T17:57:18;34.10;;;17.27;;
42198;SDS011;27868;45.184;5.786;2023-03-01T18:00:03;37.38;;;19.70;;
42198;SDS011;27868;45.184;5.786;2023-03-01T18:02:49;34.08;;;19.13;;
42198;SDS011;27868;45.184;5.786;2023-03-01T18:05:34;37.17;;;18.67;;
42198;SDS011;27868;45.184;5.786;2023-03-01T18:08:21;40.03;;;19.05;;
42198;SDS011;27868;45.184;5.786;2023-03-01T18:11:05;34.70;;;18.20;;
42198;SDS011;27868;45.184;5.786;2023-03-01T18:13:52;33.65;;;17.95;;
42198;SDS011;27868;45.184;5.786;2023-03-01T18:16:37;35.50;;;19.08;;
42198;SDS011;27868;45.184;5.786;2023-03-01T18:19:22;39.83;;;20.08;;
42198;SDS011;27868;45.184;5.786;2023-03-01T18:22:07;36.28;;;19.30;;
42198;SDS011;27868;45.184;5.786;2023-03-01T18:24:52;36.17;;;19.23;;
42198;SDS011;27868;45.184;5.786;2023-03-01T18:27:36;39.90;;;20.25;;
42198;SDS011;27868;45.184;5.786;2023-03-01T18:30:21;33.78;;;17.58;;
42198;SDS011;27868;45.184;5.786;2023-03-01T18:33:05;36.53;;;18.58;;
42198;SDS011;27868;45.184;5.786;2023-03-01T18:35:50;36.53;;;19.40;;
42198;SDS011;27868;45.184;5.786;2023-03-01T18:38:34;38.58;;;20.40;;
42198;SDS011;27868;45.184;5.786;2023-03-01T18:41:19;38.30;;;20.30;;
42198;SDS011;27868;45.184;5.786;2023-03-01T18:44:04;36.17;;;19.08;;